createdAt,value
2018-07-31T00:00:20.497Z,99096.54
2018-07-31T00:00:51.668Z,99088.06
2018-07-31T00:01:22.876Z,99088.06
2018-07-31T00:01:53.992Z,99091.08
2018-07-31T00:02:25.120Z,99088.42
2018-07-31T00:02:56.282Z,99093.98
2018-07-31T00:03:27.436Z,99089.39
2018-07-31T00:03:58.620Z,99092.33
2018-07-31T00:04:29.789Z,99093.37
2018-07-31T00:05:00.979Z,99092.27
2018-07-31T00:05:32.218Z,99093.47
2018-07-31T00:06:03.380Z,99094.94
2018-07-31T00:06:34.494Z,99096.13
2018-07-31T00:07:05.610Z,99099.06
2018-07-31T00:07:36.788Z,99098.34
2018-07-31T00:08:07.970Z,99096.64
2018-07-31T00:08:39.093Z,99092.66
2018-07-31T00:09:10.248Z,99091.23
2018-07-31T00:09:41.415Z,99096.64
2018-07-31T00:10:12.596Z,99092.56
2018-07-31T00:10:43.776Z,99097.97
2018-07-31T00:11:14.961Z,99091.23
2018-07-31T00:11:46.191Z,99093.52
2018-07-31T00:12:17.413Z,99095.68
2018-07-31T00:12:48.584Z,99097.37
2018-07-31T00:13:19.707Z,99094.71
2018-07-31T00:13:50.825Z,99093.37
2018-07-31T00:14:21.946Z,99098.09
2018-07-31T00:14:53.108Z,99093.83
2018-07-31T00:15:24.276Z,99089.84
2018-07-31T00:15:55.461Z,99091.53
2018-07-31T00:16:26.624Z,99089.59
2018-07-31T00:16:57.805Z,99085.97
2018-07-31T00:17:29.079Z,99090.42
2018-07-31T00:18:00.325Z,99083.91
2018-07-31T00:18:31.452Z,99082.94
2018-07-31T00:19:02.625Z,99085.47
2018-07-31T00:19:33.735Z,99085.83
2018-07-31T00:20:05.005Z,99082.80
2018-07-31T00:20:36.185Z,99076.98
2018-07-31T00:21:07.356Z,99081.84
2018-07-31T00:21:38.586Z,99082.45
2018-07-31T00:22:09.759Z,99081.81
2018-07-31T00:22:40.872Z,99080.70
2018-07-31T00:23:12.072Z,99082.26
2018-07-31T00:23:43.193Z,99083.59
2018-07-31T00:24:14.360Z,99081.43
2018-07-31T00:24:45.581Z,99080.10
2018-07-31T00:25:16.759Z,99082.90
2018-07-31T00:25:48.009Z,99081.21
2018-07-31T00:26:19.187Z,99084.62
2018-07-31T00:26:50.417Z,99084.25
2018-07-31T00:27:21.639Z,99083.28
2018-07-31T00:27:52.759Z,99080.91
2018-07-31T00:28:23.908Z,99085.72
2018-07-31T00:28:55.090Z,99081.23
2018-07-31T00:29:26.261Z,99080.27
2018-07-31T00:29:57.440Z,99080.13
2018-07-31T00:30:28.561Z,99078.79
2018-07-31T00:30:59.820Z,99081.45
2018-07-31T00:31:30.948Z,99084.11
2018-07-31T00:32:02.105Z,99083.88
2018-07-31T00:32:33.226Z,99084.23
2018-07-31T00:33:04.339Z,99082.90
2018-07-31T00:33:35.588Z,99080.84
2018-07-31T00:34:06.711Z,99082.54
2018-07-31T00:34:37.831Z,99086.77
2018-07-31T00:35:08.997Z,99085.70
2018-07-31T00:35:40.196Z,99089.55
2018-07-31T00:36:11.384Z,99091.94
2018-07-31T00:36:42.489Z,99086.39
2018-07-31T00:37:13.752Z,99085.78
2018-07-31T00:37:44.943Z,99084.81
2018-07-31T00:38:16.147Z,99088.30
2018-07-31T00:38:47.306Z,99086.61
2018-07-31T00:39:18.423Z,99082.03
2018-07-31T00:39:49.625Z,99088.83
2018-07-31T00:40:20.744Z,99084.01
2018-07-31T00:40:51.965Z,99087.50
2018-07-31T00:41:23.127Z,99080.02
2018-07-31T00:41:54.353Z,99083.51
2018-07-31T00:42:25.483Z,99079.52
2018-07-31T00:42:56.653Z,99081.21
2018-07-31T00:43:27.829Z,99077.22
2018-07-31T00:43:59.028Z,99074.34
2018-07-31T00:44:30.204Z,99076.13
2018-07-31T00:45:01.381Z,99080.77
2018-07-31T00:45:32.524Z,99076.98
2018-07-31T00:46:03.688Z,99080.28
2018-07-31T00:46:34.811Z,99080.06
2018-07-31T00:47:05.957Z,99081.39
2018-07-31T00:47:37.099Z,99080.89
2018-07-31T00:48:08.310Z,99085.48
2018-07-31T00:48:39.431Z,99087.17
2018-07-31T00:49:10.624Z,99081.63
2018-07-31T00:49:41.792Z,99090.20
2018-07-31T00:50:12.952Z,99085.24
2018-07-31T00:50:44.072Z,99088.38
2018-07-31T00:51:15.180Z,99090.20
2018-07-31T00:51:46.418Z,99089.01
2018-07-31T00:52:17.588Z,99089.15
2018-07-31T00:52:48.916Z,99088.28
2018-07-31T00:53:20.123Z,99088.42
2018-07-31T00:53:51.239Z,99088.06
2018-07-31T00:54:22.471Z,99089.03
2018-07-31T00:54:53.667Z,99094.11
2018-07-31T00:55:24.932Z,99090.80
2018-07-31T00:55:56.055Z,99086.13
2018-07-31T00:56:27.231Z,99087.81
2018-07-31T00:56:58.357Z,99088.14
2018-07-31T00:57:29.551Z,99088.51
2018-07-31T00:58:00.728Z,99084.07
2018-07-31T00:58:31.875Z,99097.37
2018-07-31T00:59:03.001Z,99083.70
2018-07-31T00:59:34.180Z,99089.39
2018-07-31T01:00:05.352Z,99083.70
2018-07-31T01:00:36.561Z,99089.16
2018-07-31T01:01:07.745Z,99087.33
2018-07-31T01:01:38.935Z,99087.33
2018-07-31T01:02:10.144Z,99089.99
2018-07-31T01:02:41.263Z,99084.20
2018-07-31T01:03:12.583Z,99087.75
2018-07-31T01:03:43.706Z,99090.29
2018-07-31T01:04:14.827Z,99088.73
2018-07-31T01:04:45.997Z,99090.56
2018-07-31T01:05:17.230Z,99084.66
2018-07-31T01:05:48.621Z,99087.09
2018-07-31T01:06:19.848Z,99085.53
2018-07-31T01:06:50.967Z,99084.20
2018-07-31T01:07:22.184Z,99089.52
2018-07-31T01:07:53.344Z,99088.55
2018-07-31T01:08:24.613Z,99090.34
2018-07-31T01:08:55.737Z,99084.56
2018-07-31T01:09:27.097Z,99084.56
2018-07-31T01:09:58.309Z,99087.22
2018-07-31T01:10:29.572Z,99091.31
2018-07-31T01:11:00.813Z,99080.35
2018-07-31T01:11:31.911Z,99087.96
2018-07-31T01:12:03.096Z,99081.78
2018-07-31T01:12:34.220Z,99088.80
2018-07-31T01:13:05.386Z,99084.94
2018-07-31T01:13:36.552Z,99081.78
2018-07-31T01:14:07.725Z,99084.80
2018-07-31T01:14:39.009Z,99087.69
2018-07-31T01:15:10.166Z,99083.59
2018-07-31T01:15:41.340Z,99088.64
2018-07-31T01:16:12.459Z,99086.81
2018-07-31T01:16:43.759Z,99088.14
2018-07-31T01:17:14.956Z,99085.63
2018-07-31T01:17:46.168Z,99087.09
2018-07-31T01:18:17.332Z,99091.58
2018-07-31T01:18:48.515Z,99088.66
2018-07-31T01:19:19.714Z,99100.29
2018-07-31T01:19:50.836Z,99087.46
2018-07-31T01:20:22.102Z,99087.83
2018-07-31T01:20:53.283Z,99089.52
2018-07-31T01:21:24.448Z,99086.50
2018-07-31T01:21:55.569Z,99082.42
2018-07-31T01:22:26.682Z,99087.28
2018-07-31T01:22:57.873Z,99081.97
2018-07-31T01:23:29.084Z,99080.97
2018-07-31T01:24:00.198Z,99079.30
2018-07-31T01:24:31.313Z,99087.28
2018-07-31T01:25:02.476Z,99084.95
2018-07-31T01:25:33.674Z,99083.16
2018-07-31T01:26:04.952Z,99080.97
2018-07-31T01:26:36.068Z,99082.19
2018-07-31T01:27:07.232Z,99083.30
2018-07-31T01:27:38.350Z,99082.20
2018-07-31T01:28:09.483Z,99080.52
2018-07-31T01:28:40.594Z,99082.70
2018-07-31T01:29:11.706Z,99078.22
2018-07-31T01:29:42.823Z,99074.22
2018-07-31T01:30:13.932Z,99082.78
2018-07-31T01:30:45.152Z,99078.30
2018-07-31T01:31:16.328Z,99078.89
2018-07-31T01:31:47.582Z,99077.10
2018-07-31T01:32:18.734Z,99081.55
2018-07-31T01:32:50.018Z,99074.44
2018-07-31T01:33:21.155Z,99076.97
2018-07-31T01:33:52.347Z,99078.88
2018-07-31T01:34:23.463Z,99076.95
2018-07-31T01:34:54.623Z,99075.48
2018-07-31T01:35:25.749Z,99074.84
2018-07-31T01:35:56.960Z,99079.34
2018-07-31T01:36:28.284Z,99080.06
2018-07-31T01:36:59.568Z,99072.41
2018-07-31T01:37:30.736Z,99075.21
2018-07-31T01:38:02.045Z,99073.74
2018-07-31T01:38:33.188Z,99080.06
2018-07-31T01:39:04.408Z,99072.33
2018-07-31T01:39:35.526Z,99081.03
2018-07-31T01:40:06.704Z,99071.72
2018-07-31T01:40:37.873Z,99075.44
2018-07-31T01:41:09.064Z,99076.16
2018-07-31T01:41:40.176Z,99076.98
2018-07-31T01:42:11.456Z,99074.69
2018-07-31T01:42:42.589Z,99078.82
2018-07-31T01:43:13.753Z,99078.82
2018-07-31T01:43:44.956Z,99073.36
2018-07-31T01:44:16.120Z,99078.22
2018-07-31T01:44:47.247Z,99074.55
2018-07-31T01:45:18.380Z,99076.75
2018-07-31T01:45:49.525Z,99079.88
2018-07-31T01:46:20.635Z,99085.83
2018-07-31T01:46:51.753Z,99081.12
2018-07-31T01:47:22.915Z,99074.97
2018-07-31T01:47:54.084Z,99074.83
2018-07-31T01:48:25.296Z,99077.48
2018-07-31T01:48:56.540Z,99075.94
2018-07-31T01:49:27.663Z,99083.05
2018-07-31T01:49:58.828Z,99078.09
2018-07-31T01:50:30.000Z,99080.66
2018-07-31T01:51:01.117Z,99081.16
2018-07-31T01:51:32.452Z,99082.96
2018-07-31T01:52:03.628Z,99076.67
2018-07-31T01:52:34.787Z,99078.73
2018-07-31T01:53:05.956Z,99085.11
2018-07-31T01:53:37.141Z,99080.52
2018-07-31T01:54:08.361Z,99082.81
2018-07-31T01:54:39.487Z,99079.55
2018-07-31T01:55:10.717Z,99082.06
2018-07-31T01:55:41.879Z,99081.56
2018-07-31T01:56:13.053Z,99080.88
2018-07-31T01:56:44.235Z,99083.17
2018-07-31T01:57:15.410Z,99085.70
2018-07-31T01:57:46.592Z,99088.51
2018-07-31T01:58:17.714Z,99083.83
2018-07-31T01:58:48.931Z,99087.81
2018-07-31T01:59:20.047Z,99085.02
2018-07-31T01:59:51.191Z,99081.25
2018-07-31T02:00:22.312Z,99085.38
2018-07-31T02:00:53.480Z,99085.70
2018-07-31T02:01:24.716Z,99086.07
2018-07-31T02:01:55.835Z,99081.39
2018-07-31T02:02:27.011Z,99087.77
2018-07-31T02:02:58.316Z,99087.30
2018-07-31T02:03:29.489Z,99083.64
2018-07-31T02:04:00.691Z,99086.80
2018-07-31T02:04:31.892Z,99090.79
2018-07-31T02:05:03.059Z,99087.16
2018-07-31T02:05:34.385Z,99086.44
2018-07-31T02:06:05.564Z,99098.27
2018-07-31T02:06:36.685Z,99093.95
2018-07-31T02:07:07.994Z,99091.29
2018-07-31T02:07:39.228Z,99094.41
2018-07-31T02:08:10.460Z,99090.92
2018-07-31T02:08:41.669Z,99093.45
2018-07-31T02:09:12.792Z,99088.13
2018-07-31T02:09:43.995Z,99089.09
2018-07-31T02:10:15.121Z,99093.08
2018-07-31T02:10:46.302Z,99090.70
2018-07-31T02:11:17.441Z,99090.80
2018-07-31T02:11:48.556Z,99091.80
2018-07-31T02:12:19.740Z,99087.67
2018-07-31T02:12:50.852Z,99088.04
2018-07-31T02:13:22.064Z,99088.04
2018-07-31T02:13:53.285Z,99084.05
2018-07-31T02:14:24.476Z,99084.52
2018-07-31T02:14:55.617Z,99081.03
2018-07-31T02:15:26.739Z,99088.38
2018-07-31T02:15:57.949Z,99084.38
2018-07-31T02:16:29.075Z,99083.77
2018-07-31T02:17:00.188Z,99082.20
2018-07-31T02:17:31.364Z,99084.23
2018-07-31T02:18:02.545Z,99081.56
2018-07-31T02:18:33.818Z,99085.17
2018-07-31T02:19:04.936Z,99082.88
2018-07-31T02:19:36.152Z,99085.03
2018-07-31T02:20:07.357Z,99082.29
2018-07-31T02:20:38.569Z,99081.20
2018-07-31T02:21:09.753Z,99084.23
2018-07-31T02:21:40.859Z,99078.68
2018-07-31T02:22:12.315Z,99083.53
2018-07-31T02:22:43.552Z,99082.89
2018-07-31T02:23:14.739Z,99083.86
2018-07-31T02:23:45.903Z,99080.59
2018-07-31T02:24:17.023Z,99086.64
2018-07-31T02:24:48.181Z,99079.27
2018-07-31T02:25:19.307Z,99076.97
2018-07-31T02:25:50.443Z,99081.70
2018-07-31T02:26:21.562Z,99041.27
2018-07-31T02:26:52.671Z,99078.82
2018-07-31T02:27:23.840Z,99084.14
2018-07-31T02:27:55.085Z,99083.77
2018-07-31T02:28:26.332Z,99077.13
2018-07-31T02:28:57.492Z,99080.15
2018-07-31T02:29:28.656Z,99083.64
2018-07-31T02:29:59.881Z,99082.81
2018-07-31T02:30:31.113Z,99081.84
2018-07-31T02:31:02.367Z,99082.45
2018-07-31T02:31:33.541Z,99080.75
2018-07-31T02:32:04.778Z,99082.09
2018-07-31T02:32:35.914Z,99080.75
2018-07-31T02:33:07.067Z,99081.48
2018-07-31T02:33:38.185Z,99083.91
2018-07-31T02:34:09.297Z,99084.29
2018-07-31T02:34:40.531Z,99083.34
2018-07-31T02:35:11.664Z,99088.09
2018-07-31T02:35:42.893Z,99087.75
2018-07-31T02:36:14.175Z,99082.20
2018-07-31T02:36:45.336Z,99086.19
2018-07-31T02:37:16.600Z,99084.50
2018-07-31T02:37:47.730Z,99083.06
2018-07-31T02:38:18.941Z,99081.38
2018-07-31T02:38:50.191Z,99076.80
2018-07-31T02:39:21.320Z,99083.44
2018-07-31T02:39:52.492Z,99083.68
2018-07-31T02:40:23.616Z,99082.12
2018-07-31T02:40:54.732Z,99085.28
2018-07-31T02:41:25.962Z,99085.87
2018-07-31T02:41:57.087Z,99081.89
2018-07-31T02:42:28.317Z,99085.52
2018-07-31T02:42:59.450Z,99088.54
2018-07-31T02:43:30.662Z,99087.57
2018-07-31T02:44:01.947Z,99084.91
2018-07-31T02:44:33.060Z,99083.58
2018-07-31T02:45:04.173Z,99089.41
2018-07-31T02:45:35.288Z,99089.41
2018-07-31T02:46:06.401Z,99085.78
2018-07-31T02:46:37.578Z,99085.06
2018-07-31T02:47:08.696Z,99086.89
2018-07-31T02:47:39.805Z,99086.02
2018-07-31T02:48:10.922Z,99079.52
2018-07-31T02:48:42.221Z,99084.00
2018-07-31T02:49:13.344Z,99085.33
2018-07-31T02:49:44.464Z,99086.02
2018-07-31T02:50:15.598Z,99087.34
2018-07-31T02:50:46.907Z,99086.39
2018-07-31T02:51:18.039Z,99090.38
2018-07-31T02:51:49.211Z,99089.91
2018-07-31T02:52:20.328Z,99087.72
2018-07-31T02:52:51.505Z,99087.02
2018-07-31T02:53:22.634Z,99091.61
2018-07-31T02:53:53.743Z,99090.88
2018-07-31T02:54:24.946Z,99092.08
2018-07-31T02:54:56.133Z,99091.34
2018-07-31T02:55:27.248Z,99090.39
2018-07-31T02:55:58.424Z,99095.13
2018-07-31T02:56:29.536Z,99094.73
2018-07-31T02:57:00.717Z,99095.70
2018-07-31T02:57:31.837Z,99098.62
2018-07-31T02:58:02.998Z,99065.19
2018-07-31T02:58:34.097Z,99097.06
2018-07-31T02:59:05.316Z,99093.53
2018-07-31T02:59:36.490Z,99097.75
2018-07-31T03:00:07.679Z,99094.39
2018-07-31T03:00:38.864Z,99094.50
2018-07-31T03:01:09.984Z,99099.22
2018-07-31T03:01:41.183Z,99099.59
2018-07-31T03:02:12.471Z,99099.09
2018-07-31T03:02:43.596Z,99099.45
2018-07-31T03:03:14.762Z,99104.03
2018-07-31T03:03:45.875Z,99107.06
2018-07-31T03:04:17.086Z,99097.76
2018-07-31T03:04:48.271Z,99101.28
2018-07-31T03:05:19.384Z,99102.97
2018-07-31T03:05:50.626Z,99096.66
2018-07-31T03:06:21.857Z,99104.77
2018-07-31T03:06:53.049Z,99097.30
2018-07-31T03:07:24.277Z,99099.09
2018-07-31T03:07:55.461Z,99102.84
2018-07-31T03:08:26.707Z,99032.95
2018-07-31T03:08:57.849Z,99105.53
2018-07-31T03:09:29.021Z,99105.77
2018-07-31T03:10:00.191Z,99103.24
2018-07-31T03:10:31.371Z,99105.16
2018-07-31T03:11:02.601Z,99106.03
2018-07-31T03:11:33.834Z,99107.98
2018-07-31T03:12:04.956Z,99105.06
2018-07-31T03:12:36.060Z,99108.22
2018-07-31T03:13:07.232Z,99106.16
2018-07-31T03:13:38.402Z,99101.71
2018-07-31T03:14:09.584Z,99101.84
2018-07-31T03:14:40.700Z,99107.84
2018-07-31T03:15:11.817Z,99103.17
2018-07-31T03:15:42.934Z,99106.76
2018-07-31T03:16:14.093Z,99106.30
2018-07-31T03:16:45.232Z,99104.96
2018-07-31T03:17:16.580Z,99109.55
2018-07-31T03:17:47.765Z,99104.11
2018-07-31T03:18:19.124Z,99108.05
2018-07-31T03:18:50.349Z,99104.07
2018-07-31T03:19:21.521Z,99106.27
2018-07-31T03:19:52.662Z,99101.78
2018-07-31T03:20:23.836Z,99105.90
2018-07-31T03:20:54.991Z,99107.22
2018-07-31T03:21:26.156Z,99106.03
2018-07-31T03:21:57.292Z,99111.70
2018-07-31T03:22:28.461Z,99104.70
2018-07-31T03:22:59.669Z,99104.44
2018-07-31T03:23:30.801Z,99101.41
2018-07-31T03:24:01.912Z,99106.86
2018-07-31T03:24:33.030Z,99105.53
2018-07-31T03:25:04.167Z,99104.07
2018-07-31T03:25:35.273Z,99105.53
2018-07-31T03:26:06.428Z,99108.19
2018-07-31T03:26:37.542Z,99109.28
2018-07-31T03:27:08.743Z,99111.34
2018-07-31T03:27:39.924Z,99109.65
2018-07-31T03:28:11.200Z,99105.66
2018-07-31T03:28:42.432Z,99110.97
2018-07-31T03:29:13.548Z,99117.02
2018-07-31T03:29:44.716Z,99115.69
2018-07-31T03:30:16.025Z,99110.74
2018-07-31T03:30:47.158Z,99112.44
2018-07-31T03:31:18.307Z,99108.45
2018-07-31T03:31:49.537Z,99116.42
2018-07-31T03:32:20.817Z,99116.30
2018-07-31T03:32:52.006Z,99116.16
2018-07-31T03:33:23.114Z,99114.83
2018-07-31T03:33:54.294Z,99121.01
2018-07-31T03:34:25.455Z,99119.55
2018-07-31T03:34:56.649Z,99113.04
2018-07-31T03:35:27.767Z,99117.85
2018-07-31T03:35:58.932Z,99122.20
2018-07-31T03:36:30.039Z,99123.53
2018-07-31T03:37:01.199Z,99120.88
2018-07-31T03:37:32.328Z,99122.56
2018-07-31T03:38:03.544Z,99121.23
2018-07-31T03:38:34.727Z,99121.94
2018-07-31T03:39:05.915Z,99119.91
2018-07-31T03:39:37.022Z,99120.98
2018-07-31T03:40:08.199Z,99116.63
2018-07-31T03:40:39.421Z,99120.61
2018-07-31T03:41:10.615Z,99125.69
2018-07-31T03:41:41.833Z,99124.23
2018-07-31T03:42:13.072Z,99123.13
2018-07-31T03:42:44.251Z,99121.67
2018-07-31T03:43:15.375Z,99123.00
2018-07-31T03:43:46.558Z,99128.68
2018-07-31T03:44:17.669Z,99126.98
2018-07-31T03:44:48.785Z,99124.83
2018-07-31T03:45:20.005Z,99128.31
2018-07-31T03:45:51.128Z,99128.81
2018-07-31T03:46:22.357Z,99128.22
2018-07-31T03:46:53.546Z,99131.20
2018-07-31T03:47:24.692Z,99133.77
2018-07-31T03:47:55.808Z,99127.58
2018-07-31T03:48:26.919Z,99131.70
2018-07-31T03:48:58.057Z,99131.94
2018-07-31T03:49:29.342Z,99131.70
2018-07-31T03:50:00.526Z,99131.97
2018-07-31T03:50:31.728Z,99127.88
2018-07-31T03:51:02.963Z,99130.64
2018-07-31T03:51:34.115Z,99130.41
2018-07-31T03:52:05.224Z,99131.36
2018-07-31T03:52:36.444Z,99132.70
2018-07-31T03:53:07.645Z,99132.59
2018-07-31T03:53:38.817Z,99131.63
2018-07-31T03:54:09.995Z,99135.12
2018-07-31T03:54:41.225Z,99131.00
2018-07-31T03:55:12.404Z,99133.53
2018-07-31T03:55:43.524Z,99135.13
2018-07-31T03:56:14.659Z,99137.28
2018-07-31T03:56:45.785Z,99134.98
2018-07-31T03:57:16.952Z,99132.06
2018-07-31T03:57:48.180Z,99137.38
2018-07-31T03:58:19.360Z,99137.38
2018-07-31T03:58:50.523Z,99132.30
2018-07-31T03:59:21.694Z,99137.52
2018-07-31T03:59:52.820Z,99137.15
2018-07-31T04:00:23.984Z,99134.99
2018-07-31T04:00:55.192Z,99134.63
2018-07-31T04:01:26.318Z,99137.15
2018-07-31T04:01:58.262Z,99136.65
2018-07-31T04:02:29.474Z,99134.13
2018-07-31T04:03:00.598Z,99141.14
2018-07-31T04:03:31.800Z,99130.73
2018-07-31T04:04:02.977Z,99132.44
2018-07-31T04:04:34.089Z,99138.11
2018-07-31T04:05:05.246Z,99141.14
2018-07-31T04:05:36.590Z,99131.83
2018-07-31T04:06:07.833Z,99137.02
2018-07-31T04:06:38.963Z,99141.73
2018-07-31T04:07:10.394Z,99139.44
2018-07-31T04:07:41.665Z,99133.27
2018-07-31T04:08:12.799Z,99132.16
2018-07-31T04:08:43.919Z,99135.69
2018-07-31T04:09:15.097Z,99128.67
2018-07-31T04:09:46.318Z,99132.43
2018-07-31T04:10:17.439Z,99133.16
2018-07-31T04:10:48.565Z,99132.44
2018-07-31T04:11:19.687Z,99132.44
2018-07-31T04:11:50.804Z,99133.63
2018-07-31T04:12:21.927Z,99132.90
2018-07-31T04:12:53.128Z,99129.14
2018-07-31T04:13:24.329Z,99129.51
2018-07-31T04:13:55.448Z,99129.38
2018-07-31T04:14:26.620Z,99126.48
2018-07-31T04:14:57.843Z,99131.66
2018-07-31T04:15:29.074Z,99128.88
2018-07-31T04:16:00.283Z,99132.03
2018-07-31T04:16:31.398Z,99122.72
2018-07-31T04:17:02.645Z,99128.27
2018-07-31T04:17:33.838Z,99120.89
2018-07-31T04:18:04.959Z,99126.70
2018-07-31T04:18:36.154Z,99124.28
2018-07-31T04:19:07.356Z,99125.48
2018-07-31T04:19:38.499Z,99122.22
2018-07-31T04:20:09.745Z,99127.40
2018-07-31T04:20:40.926Z,99124.14
2018-07-31T04:21:12.144Z,99125.11
2018-07-31T04:21:43.316Z,99123.77
2018-07-31T04:22:14.464Z,99121.72
2018-07-31T04:22:45.571Z,99124.27
2018-07-31T04:23:16.731Z,99125.47
2018-07-31T04:23:47.864Z,99122.45
2018-07-31T04:24:19.086Z,99127.49
2018-07-31T04:24:50.207Z,99123.27
2018-07-31T04:25:21.315Z,99126.16
2018-07-31T04:25:52.497Z,99125.28
2018-07-31T04:26:23.704Z,99126.14
2018-07-31T04:26:54.904Z,99128.91
2018-07-31T04:27:26.081Z,99129.64
2018-07-31T04:27:57.253Z,99131.61
2018-07-31T04:28:28.379Z,99133.63
2018-07-31T04:28:59.495Z,99133.99
2018-07-31T04:29:30.616Z,99138.21
2018-07-31T04:30:01.832Z,99135.92
2018-07-31T04:30:32.867Z,99136.64
2018-07-31T04:31:04.101Z,99134.13
2018-07-31T04:31:35.282Z,99132.89
2018-07-31T04:32:06.511Z,99135.09
2018-07-31T04:32:37.625Z,99134.72
2018-07-31T04:33:08.785Z,99136.28
2018-07-31T04:33:39.972Z,99133.63
2018-07-31T04:34:11.120Z,99139.08
2018-07-31T04:34:42.341Z,99139.18
2018-07-31T04:35:13.466Z,99133.03
2018-07-31T04:35:44.651Z,99133.16
2018-07-31T04:36:15.851Z,99136.20
2018-07-31T04:36:47.020Z,99127.16
2018-07-31T04:37:18.260Z,99131.98
2018-07-31T04:37:49.483Z,99131.48
2018-07-31T04:38:20.603Z,99133.67
2018-07-31T04:38:51.879Z,99129.19
2018-07-31T04:39:23.154Z,99128.95
2018-07-31T04:39:54.324Z,99126.98
2018-07-31T04:40:25.443Z,99132.43
2018-07-31T04:40:56.613Z,99127.47
2018-07-31T04:41:27.719Z,99130.00
2018-07-31T04:41:58.958Z,99131.19
2018-07-31T04:42:30.194Z,99132.52
2018-07-31T04:43:01.473Z,99128.17
2018-07-31T04:43:32.670Z,99129.13
2018-07-31T04:44:03.880Z,99131.19
2018-07-31T04:44:35.009Z,99129.03
2018-07-31T04:45:06.125Z,99126.14
2018-07-31T04:45:37.359Z,99129.88
2018-07-31T04:46:08.503Z,99132.94
2018-07-31T04:46:39.721Z,99131.38
2018-07-31T04:47:10.921Z,99126.53
2018-07-31T04:47:42.086Z,99123.50
2018-07-31T04:48:13.308Z,99126.66
2018-07-31T04:48:44.493Z,99127.16
2018-07-31T04:49:15.672Z,99130.16
2018-07-31T04:49:46.787Z,99127.99
2018-07-31T04:50:17.941Z,99130.42
2018-07-31T04:50:49.044Z,99125.34
2018-07-31T04:51:20.157Z,99133.95
2018-07-31T04:51:51.320Z,99135.51
2018-07-31T04:52:22.498Z,99130.05
2018-07-31T04:52:53.737Z,99130.92
2018-07-31T04:53:24.855Z,99122.08
2018-07-31T04:53:56.080Z,99124.02
2018-07-31T04:54:27.312Z,99128.27
2018-07-31T04:54:58.513Z,99131.75
2018-07-31T04:55:29.689Z,99122.45
2018-07-31T04:56:00.872Z,99129.09
2018-07-31T04:56:32.097Z,99131.75
2018-07-31T04:57:03.224Z,99125.33
2018-07-31T04:57:34.396Z,99130.28
2018-07-31T04:58:05.613Z,99129.09
2018-07-31T04:58:36.729Z,99130.78
2018-07-31T04:59:07.840Z,99125.83
2018-07-31T04:59:38.955Z,99127.99
2018-07-31T05:00:10.067Z,99127.49
2018-07-31T05:00:41.263Z,99130.16
2018-07-31T05:01:12.491Z,99130.78
2018-07-31T05:01:43.728Z,99129.45
2018-07-31T05:02:14.907Z,99136.70
2018-07-31T05:02:46.044Z,99136.97
2018-07-31T05:03:17.253Z,99139.63
2018-07-31T05:03:48.401Z,99143.03
2018-07-31T05:04:19.620Z,99141.97
2018-07-31T05:04:50.837Z,99143.89
2018-07-31T05:05:22.022Z,99140.41
2018-07-31T05:05:53.155Z,99144.02
2018-07-31T05:06:24.265Z,99147.05
2018-07-31T05:06:55.443Z,99143.30
2018-07-31T05:07:26.601Z,99143.92
2018-07-31T05:07:57.859Z,99144.99
2018-07-31T05:08:29.039Z,99145.48
2018-07-31T05:09:00.153Z,99135.09
2018-07-31T05:09:31.530Z,99141.13
2018-07-31T05:10:02.768Z,99137.88
2018-07-31T05:10:33.913Z,99139.20
2018-07-31T05:11:05.114Z,99140.30
2018-07-31T05:11:36.254Z,99140.56
2018-07-31T05:12:07.367Z,99137.55
2018-07-31T05:12:38.537Z,99133.92
2018-07-31T05:13:09.726Z,99137.91
2018-07-31T05:13:40.903Z,99137.05
2018-07-31T05:14:12.023Z,99140.06
2018-07-31T05:14:43.337Z,99139.47
2018-07-31T05:15:14.600Z,99140.66
2018-07-31T05:15:45.855Z,99138.98
2018-07-31T05:16:17.039Z,99143.06
2018-07-31T05:16:48.179Z,99143.53
2018-07-31T05:17:19.329Z,99148.52
2018-07-31T05:17:50.516Z,99139.44
2018-07-31T05:18:21.745Z,99138.95
2018-07-31T05:18:52.913Z,99150.80
2018-07-31T05:19:24.395Z,99145.95
2018-07-31T05:19:55.628Z,99141.97
2018-07-31T05:20:26.817Z,99149.11
2018-07-31T05:20:57.948Z,99149.34
2018-07-31T05:21:29.167Z,99143.20
2018-07-31T05:22:00.545Z,99141.27
2018-07-31T05:22:31.760Z,99143.06
2018-07-31T05:23:02.877Z,99147.41
2018-07-31T05:23:34.244Z,99142.20
2018-07-31T05:24:05.368Z,99146.19
2018-07-31T05:24:36.661Z,99146.91
2018-07-31T05:25:07.781Z,99146.19
2018-07-31T05:25:38.989Z,99139.04
2018-07-31T05:26:10.161Z,99143.62
2018-07-31T05:26:41.391Z,99148.57
2018-07-31T05:27:12.610Z,99142.39
2018-07-31T05:27:43.727Z,99145.64
2018-07-31T05:28:14.910Z,99145.77
2018-07-31T05:28:46.037Z,99096.55
2018-07-31T05:29:17.208Z,99146.42
2018-07-31T05:29:48.328Z,99143.14
2018-07-31T05:30:19.548Z,99147.95
2018-07-31T05:30:50.695Z,99140.29
2018-07-31T05:31:21.881Z,99148.74
2018-07-31T05:31:53.185Z,99149.33
2018-07-31T05:32:24.321Z,99145.34
2018-07-31T05:32:55.599Z,99153.22
2018-07-31T05:33:26.768Z,99152.22
2018-07-31T05:33:58.011Z,99146.29
2018-07-31T05:34:29.147Z,99149.66
2018-07-31T05:35:00.321Z,99151.11
2018-07-31T05:35:31.451Z,99151.80
2018-07-31T05:36:02.613Z,99150.92
2018-07-31T05:36:33.740Z,99149.71
2018-07-31T05:37:04.988Z,99152.38
2018-07-31T05:37:36.165Z,99154.06
2018-07-31T05:38:07.288Z,99150.77
2018-07-31T05:38:38.525Z,99151.27
2018-07-31T05:39:09.753Z,99156.59
2018-07-31T05:39:40.882Z,99152.82
2018-07-31T05:40:11.995Z,99154.29
2018-07-31T05:40:43.120Z,99163.47
2018-07-31T05:41:14.334Z,99157.87
2018-07-31T05:41:45.450Z,99160.00
2018-07-31T05:42:16.625Z,99157.46
2018-07-31T05:42:47.750Z,99156.58
2018-07-31T05:43:18.980Z,99157.05
2018-07-31T05:43:50.114Z,99165.03
2018-07-31T05:44:21.298Z,99159.92
2018-07-31T05:44:52.479Z,99162.20
2018-07-31T05:45:23.608Z,99164.62
2018-07-31T05:45:54.741Z,99164.12
2018-07-31T05:46:25.908Z,99165.67
2018-07-31T05:46:57.027Z,99166.78
2018-07-31T05:47:28.223Z,99163.51
2018-07-31T05:47:59.352Z,99171.22
2018-07-31T05:48:30.575Z,99172.02
2018-07-31T05:49:01.693Z,99169.21
2018-07-31T05:49:32.826Z,99168.00
2018-07-31T05:50:03.956Z,99169.33
2018-07-31T05:50:35.136Z,99147.86
2018-07-31T05:51:06.316Z,99166.05
2018-07-31T05:51:37.437Z,99173.07
2018-07-31T05:52:08.624Z,99171.38
2018-07-31T05:52:39.857Z,99169.33
2018-07-31T05:53:11.085Z,99165.58
2018-07-31T05:53:42.266Z,99169.14
2018-07-31T05:54:13.441Z,99167.58
2018-07-31T05:54:44.623Z,99172.05
2018-07-31T05:55:15.838Z,99172.98
2018-07-31T05:55:47.011Z,99172.84
2018-07-31T05:56:18.141Z,99171.05
2018-07-31T05:56:49.272Z,99172.73
2018-07-31T05:57:20.537Z,99168.16
2018-07-31T05:57:51.889Z,99175.77
2018-07-31T05:58:23.066Z,99173.43
2018-07-31T05:58:54.189Z,99171.74
2018-07-31T05:59:25.359Z,99171.34
2018-07-31T05:59:56.709Z,99167.94
2018-07-31T06:00:27.884Z,99174.45
2018-07-31T06:00:58.993Z,99166.17
2018-07-31T06:01:30.124Z,99171.39
2018-07-31T06:02:01.370Z,99172.44
2018-07-31T06:02:32.512Z,99175.19
2018-07-31T06:03:03.641Z,99176.73
2018-07-31T06:03:34.832Z,99169.86
2018-07-31T06:04:05.976Z,99174.86
2018-07-31T06:04:37.174Z,99169.02
2018-07-31T06:05:08.350Z,99172.20
2018-07-31T06:05:39.633Z,99165.42
2018-07-31T06:06:10.771Z,99179.22